createdAt,value
2023-05-17T00:03:12.019Z,12.19
2023-05-17T00:08:19.479Z,12.14
2023-05-17T00:13:27.070Z,12.08
2023-05-17T00:18:34.783Z,12.04
2023-05-17T00:23:42.250Z,11.99
2023-05-17T00:28:50.514Z,11.91
2023-05-17T00:33:58.090Z,11.86
2023-05-17T00:39:05.829Z,11.77
2023-05-17T00:44:13.425Z,11.69
2023-05-17T00:49:21.415Z,11.63
2023-05-17T00:54:29.593Z,11.56
2023-05-17T00:59:37.912Z,11.52
2023-05-17T01:04:45.763Z,11.49
2023-05-17T01:09:54.387Z,11.48
2023-05-17T01:15:10.829Z,11.42
2023-05-17T01:20:25.583Z,11.43
2023-05-17T01:25:59.797Z,11.41
2023-05-17T01:31:07.660Z,11.37
2023-05-17T01:36:16.869Z,11.32
2023-05-17T01:41:31.030Z,11.26
2023-05-17T01:46:43.094Z,11.20
2023-05-17T01:52:07.463Z,11.18
2023-05-17T01:57:16.744Z,11.11
2023-05-17T02:02:24.815Z,11.04
2023-05-17T02:07:32.699Z,10.96
2023-05-17T02:12:40.623Z,10.86
2023-05-17T02:17:48.484Z,10.80
2023-05-17T02:22:56.097Z,10.71
2023-05-17T02:28:03.549Z,10.59
2023-05-17T02:33:11.153Z,10.57
2023-05-17T02:38:18.971Z,10.51
2023-05-17T02:43:26.825Z,10.44
2023-05-17T02:48:34.229Z,10.39
2023-05-17T02:53:42.751Z,10.30
2023-05-17T02:58:50.653Z,10.27
2023-05-17T03:03:58.882Z,10.22
2023-05-17T03:09:07.393Z,10.18
2023-05-17T03:14:15.132Z,10.14
2023-05-17T03:19:22.704Z,10.09
2023-05-17T03:24:31.185Z,10.06
2023-05-17T03:29:39.078Z,10.03
2023-05-17T03:34:46.818Z,9.98
2023-05-17T03:39:54.396Z,9.96
2023-05-17T03:45:01.904Z,9.93
2023-05-17T03:50:10.965Z,9.92
2023-05-17T03:55:18.918Z,9.92
2023-05-17T04:00:26.822Z,9.90
2023-05-17T04:05:36.380Z,9.90
2023-05-17T04:10:44.874Z,9.93
2023-05-17T04:15:52.342Z,9.91
2023-05-17T04:21:00.420Z,9.92
2023-05-17T04:26:08.239Z,9.94
2023-05-17T04:31:19.598Z,9.94
2023-05-17T04:36:27.300Z,9.95
2023-05-17T04:41:35.837Z,9.96
2023-05-17T04:46:44.413Z,9.94
2023-05-17T04:51:52.906Z,9.95
2023-05-17T04:57:01.217Z,9.97
2023-05-17T05:02:38.473Z,9.98
2023-05-17T05:07:46.206Z,9.99
2023-05-17T05:12:54.056Z,9.99
2023-05-17T05:18:01.766Z,10.00
2023-05-17T05:23:10.115Z,9.99
2023-05-17T05:28:18.544Z,9.99
2023-05-17T05:33:26.310Z,9.97
2023-05-17T05:38:33.843Z,9.94
2023-05-17T05:43:41.789Z,9.89
2023-05-17T05:48:49.276Z,9.85
2023-05-17T05:53:56.782Z,9.84
2023-05-17T05:59:04.728Z,9.83
2023-05-17T06:04:13.060Z,9.85
2023-05-17T06:09:20.613Z,9.89
2023-05-17T06:14:28.087Z,9.93
2023-05-17T06:19:35.881Z,9.97
2023-05-17T06:24:43.322Z,9.98
2023-05-17T06:29:51.435Z,10.04
2023-05-17T06:34:59.242Z,10.07
2023-05-17T06:40:16.761Z,10.12
2023-05-17T06:45:39.212Z,10.18
2023-05-17T06:50:46.747Z,10.22
2023-05-17T06:55:54.100Z,10.19
2023-05-17T07:01:02.166Z,10.32
2023-05-17T07:06:10.578Z,10.37
2023-05-17T07:11:17.972Z,10.41
2023-05-17T07:16:25.474Z,10.47
2023-05-17T07:21:33.668Z,10.52
2023-05-17T07:26:41.446Z,10.59
2023-05-17T07:31:48.921Z,10.62
2023-05-17T07:36:56.423Z,10.65
2023-05-17T07:42:05.436Z,10.69
2023-05-17T07:47:13.604Z,10.72
2023-05-17T07:52:34.874Z,10.74
2023-05-17T07:57:42.273Z,10.79
2023-05-17T08:03:10.915Z,10.88
2023-05-17T08:08:18.973Z,10.95
2023-05-17T08:13:26.861Z,10.99
2023-05-17T08:18:34.636Z,11.04
2023-05-17T08:23:42.956Z,11.06
2023-05-17T08:28:50.777Z,11.13
2023-05-17T08:33:58.616Z,11.17
2023-05-17T08:39:06.334Z,11.24
2023-05-17T08:44:15.945Z,11.28
2023-05-17T08:49:26.497Z,11.34
2023-05-17T08:54:34.203Z,11.39
2023-05-17T08:59:43.399Z,11.45
2023-05-17T09:04:56.337Z,11.51
2023-05-17T09:10:06.487Z,11.59
2023-05-17T09:15:24.657Z,11.67
2023-05-17T09:20:34.780Z,11.77
2023-05-17T09:25:49.052Z,11.84
2023-05-17T09:30:56.510Z,11.90
2023-05-17T09:36:04.388Z,11.94
2023-05-17T09:41:11.927Z,11.97
2023-05-17T09:46:21.431Z,12.03
2023-05-17T09:51:39.460Z,12.08
2023-05-17T09:56:47.211Z,12.15
2023-05-17T10:01:55.513Z,12.21
2023-05-17T10:07:06.686Z,12.27
2023-05-17T10:12:16.482Z,12.36
2023-05-17T10:17:25.244Z,12.45
2023-05-17T10:22:33.246Z,12.54
2023-05-17T10:27:42.311Z,12.67
2023-05-17T10:32:50.906Z,12.80
2023-05-17T10:37:58.495Z,12.95
2023-05-17T10:43:07.538Z,13.10
2023-05-17T10:48:17.501Z,13.27
2023-05-17T10:53:25.108Z,13.42
2023-05-17T10:58:32.538Z,13.55
2023-05-17T11:03:41.201Z,13.69
2023-05-17T11:09:07.537Z,13.83
2023-05-17T11:14:16.678Z,13.98
2023-05-17T11:19:24.000Z,14.13
2023-05-17T11:24:33.090Z,14.26
2023-05-17T11:29:44.116Z,14.38
2023-05-17T11:34:57.217Z,14.46
2023-05-17T11:40:10.767Z,14.55
2023-05-17T11:45:18.437Z,14.63
2023-05-17T11:50:26.323Z,14.67
2023-05-17T11:55:34.265Z,14.68
2023-05-17T12:00:43.728Z,14.70
2023-05-17T12:05:53.764Z,14.72
2023-05-17T12:11:04.363Z,14.73
2023-05-17T12:16:16.823Z,14.75
2023-05-17T12:21:25.524Z,14.75
2023-05-17T12:26:32.822Z,14.76
2023-05-17T12:31:42.841Z,14.75
2023-05-17T12:36:50.976Z,14.75
2023-05-17T12:41:58.960Z,14.73
2023-05-17T12:47:08.005Z,14.72
2023-05-17T12:52:16.045Z,14.70
2023-05-17T12:57:23.516Z,14.67
2023-05-17T13:02:30.999Z,14.65
2023-05-17T13:07:38.637Z,14.62
2023-05-17T13:12:56.344Z,14.59
2023-05-17T13:18:14.486Z,14.55
2023-05-17T13:23:21.799Z,14.52
2023-05-17T13:28:29.588Z,14.47
2023-05-17T13:33:37.175Z,14.45
2023-05-17T13:38:44.469Z,14.42
2023-05-17T13:43:51.877Z,14.42
2023-05-17T13:48:59.609Z,14.42
2023-05-17T13:54:07.778Z,14.43
2023-05-17T13:59:15.506Z,14.46
2023-05-17T14:04:23.135Z,14.50
2023-05-17T14:09:33.670Z,14.54
2023-05-17T14:14:41.413Z,14.60
2023-05-17T14:19:48.925Z,14.65
2023-05-17T14:24:56.491Z,14.68
2023-05-17T14:30:04.433Z,14.71
2023-05-17T14:35:13.124Z,14.71
2023-05-17T14:40:20.657Z,14.71
2023-05-17T14:45:28.481Z,14.70
2023-05-17T14:50:36.280Z,14.67
2023-05-17T14:55:44.129Z,14.65
2023-05-17T15:00:58.899Z,14.60
2023-05-17T15:06:13.419Z,14.53
2023-05-17T15:11:20.830Z,14.49
2023-05-17T15:16:28.918Z,14.42
2023-05-17T15:21:37.511Z,14.36
2023-05-17T15:26:44.983Z,14.29
2023-05-17T15:31:52.489Z,14.25
2023-05-17T15:37:00.205Z,14.21
2023-05-17T15:42:08.102Z,14.18
2023-05-17T15:47:15.690Z,14.14
2023-05-17T15:52:23.407Z,14.09
2023-05-17T15:57:30.764Z,14.04
2023-05-17T16:02:38.296Z,14.00
2023-05-17T16:07:47.256Z,13.95
2023-05-17T16:12:54.629Z,13.86
2023-05-17T16:18:02.832Z,13.82
2023-05-17T16:23:10.441Z,13.74
2023-05-17T16:28:19.916Z,13.66
2023-05-17T16:33:27.797Z,13.56
2023-05-17T16:38:35.368Z,13.46
2023-05-17T16:43:42.945Z,13.36
2023-05-17T16:48:51.586Z,13.26
2023-05-17T16:53:59.353Z,13.17
2023-05-17T16:59:07.387Z,13.06
2023-05-17T17:04:14.988Z,12.95
2023-05-17T17:09:22.697Z,12.83
2023-05-17T17:14:30.459Z,12.71
2023-05-17T17:19:38.123Z,12.57
2023-05-17T17:24:45.663Z,12.43
2023-05-17T17:29:53.519Z,12.30
2023-05-17T17:35:01.252Z,12.16
2023-05-17T17:40:10.418Z,12.04
2023-05-17T17:45:17.982Z,11.88
2023-05-17T17:50:25.918Z,11.76
2023-05-17T17:55:33.494Z,11.64
2023-05-17T18:00:41.848Z,11.52
2023-05-17T18:05:49.265Z,11.40
2023-05-17T18:10:56.972Z,11.30
2023-05-17T18:16:04.418Z,11.19
2023-05-17T18:21:13.478Z,11.09
2023-05-17T18:26:21.734Z,11.01
2023-05-17T18:31:29.301Z,10.92
2023-05-17T18:36:36.645Z,10.84
2023-05-17T18:41:44.080Z,10.76
2023-05-17T18:46:54.287Z,10.67
2023-05-17T18:52:01.658Z,10.60
2023-05-17T18:57:11.948Z,10.52
2023-05-17T19:02:19.860Z,10.43
2023-05-17T19:07:27.758Z,10.36
2023-05-17T19:12:35.968Z,10.29
2023-05-17T19:17:43.604Z,10.21
2023-05-17T19:22:51.582Z,10.15
2023-05-17T19:27:59.532Z,10.09
2023-05-17T19:33:07.806Z,10.04
2023-05-17T19:38:15.530Z,9.98
2023-05-17T19:43:23.072Z,9.94
2023-05-17T19:48:30.728Z,9.89
2023-05-17T19:53:51.797Z,9.84
2023-05-17T19:58:58.912Z,9.79
2023-05-17T20:04:06.565Z,9.73
2023-05-17T20:09:14.414Z,9.68
2023-05-17T20:14:22.216Z,9.62
2023-05-17T20:19:33.149Z,9.58
2023-05-17T20:24:41.579Z,9.52
2023-05-17T20:29:49.333Z,9.47
2023-05-17T20:34:56.833Z,9.43
2023-05-17T20:40:05.121Z,9.38
2023-05-17T20:45:18.419Z,9.32
2023-05-17T20:50:26.141Z,9.27
2023-05-17T20:55:33.958Z,9.21
2023-05-17T21:00:42.168Z,9.18
2023-05-17T21:05:49.880Z,9.14
2023-05-17T21:10:58.049Z,9.09
2023-05-17T21:16:06.249Z,9.06
2023-05-17T21:21:14.005Z,9.01
2023-05-17T21:26:22.169Z,8.97
2023-05-17T21:31:32.447Z,8.92
2023-05-17T21:36:40.330Z,8.89
2023-05-17T21:41:48.085Z,8.85
2023-05-17T21:46:56.968Z,8.80
2023-05-17T21:52:05.533Z,8.77
2023-05-17T21:57:13.120Z,8.73
2023-05-17T22:02:21.248Z,8.70
2023-05-17T22:07:28.806Z,8.64
2023-05-17T22:12:36.742Z,8.62
2023-05-17T22:17:51.894Z,8.56
2023-05-17T22:23:00.436Z,8.52
2023-05-17T22:28:08.563Z,8.49
2023-05-17T22:33:16.827Z,8.46
2023-05-17T22:38:24.952Z,8.42
2023-05-17T22:43:32.741Z,8.38
2023-05-17T22:48:40.977Z,8.34
2023-05-17T22:53:48.820Z,8.28
2023-05-17T22:58:56.432Z,8.24
2023-05-17T23:04:04.314Z,8.18
2023-05-17T23:09:12.500Z,8.13
2023-05-17T23:14:22.213Z,8.08
2023-05-17T23:19:29.816Z,8.04
2023-05-17T23:24:39.212Z,7.99
2023-05-17T23:29:47.501Z,7.95
2023-05-17T23:34:59.021Z,7.91
2023-05-17T23:40:07.801Z,7.86
2023-05-17T23:45:16.015Z,7.80
2023-05-17T23:50:23.502Z,7.75
2023-05-17T23:55:31.599Z,7.67
